sensor_id;sensor_type;location;lat;lon;timestamp;P1;durP1;ratioP1;P2;durP2;ratioP2
75885;SDS011;64561;44.018;10.144;2023-09-19T00:00:21;7.53;;;3.80;;
75885;SDS011;64561;44.018;10.144;2023-09-19T00:02:53;9.02;;;3.78;;
75885;SDS011;64561;44.018;10.144;2023-09-19T00:05:21;9.57;;;3.85;;
75885;SDS011;64561;44.018;10.144;2023-09-19T00:07:51;10.50;;;3.25;;
75885;SDS011;64561;44.018;10.144;2023-09-19T00:10:21;10.68;;;3.70;;
75885;SDS011;64561;44.018;10.144;2023-09-19T00:12:51;11.45;;;3.78;;
75885;SDS011;64561;44.018;10.144;2023-09-19T00:15:26;16.40;;;4.47;;
75885;SDS011;64561;44.018;10.144;2023-09-19T00:17:55;13.65;;;4.03;;
75885;SDS011;64561;44.018;10.144;2023-09-19T00:20:23;9.00;;;4.10;;
75885;SDS011;64561;44.018;10.144;2023-09-19T00:22:51;11.05;;;3.90;;
75885;SDS011;64561;44.018;10.144;2023-09-19T00:25:21;6.88;;;3.55;;
75885;SDS011;64561;44.018;10.144;2023-09-19T00:27:48;13.20;;;3.60;;
75885;SDS011;64561;44.018;10.144;2023-09-19T00:30:18;7.85;;;3.38;;
75885;SDS011;64561;44.018;10.144;2023-09-19T00:32:48;10.02;;;4.25;;
75885;SDS011;64561;44.018;10.144;2023-09-19T00:35:21;14.85;;;5.35;;
75885;SDS011;64561;44.018;10.144;2023-09-19T00:37:53;11.65;;;3.90;;
75885;SDS011;64561;44.018;10.144;2023-09-19T00:40:20;11.00;;;4.50;;
75885;SDS011;64561;44.018;10.144;2023-09-19T00:42:48;10.15;;;4.00;;
75885;SDS011;64561;44.018;10.144;2023-09-19T00:45:17;15.93;;;4.25;;
75885;SDS011;64561;44.018;10.144;2023-09-19T00:47:45;16.48;;;4.55;;
75885;SDS011;64561;44.018;10.144;2023-09-19T00:50:18;12.25;;;4.93;;
75885;SDS011;64561;44.018;10.144;2023-09-19T00:52:50;11.63;;;4.13;;
75885;SDS011;64561;44.018;10.144;2023-09-19T00:55:20;16.23;;;5.30;;
75885;SDS011;64561;44.018;10.144;2023-09-19T00:57:48;17.38;;;5.13;;
75885;SDS011;64561;44.018;10.144;2023-09-19T01:00:17;11.93;;;3.83;;
75885;SDS011;64561;44.018;10.144;2023-09-19T01:02:47;8.55;;;3.72;;
75885;SDS011;64561;44.018;10.144;2023-09-19T01:05:15;10.25;;;3.78;;
75885;SDS011;64561;44.018;10.144;2023-09-19T01:07:42;16.35;;;4.85;;
75885;SDS011;64561;44.018;10.144;2023-09-19T01:10:17;16.08;;;3.83;;
75885;SDS011;64561;44.018;10.144;2023-09-19T01:15:56;14.18;;;4.65;;
75885;SDS011;64561;44.018;10.144;2023-09-19T01:18:34;18.27;;;5.28;;
75885;SDS011;64561;44.018;10.144;2023-09-19T01:27:21;13.90;;;4.70;;
75885;SDS011;64561;44.018;10.144;2023-09-19T01:30:11;19.38;;;5.10;;
75885;SDS011;64561;44.018;10.144;2023-09-19T01:32:41;11.85;;;4.15;;
75885;SDS011;64561;44.018;10.144;2023-09-19T01:35:10;11.57;;;4.97;;
75885;SDS011;64561;44.018;10.144;2023-09-19T01:37:40;11.52;;;5.03;;
75885;SDS011;64561;44.018;10.144;2023-09-19T01:40:15;9.82;;;5.30;;
75885;SDS011;64561;44.018;10.144;2023-09-19T01:46:38;18.83;;;6.07;;
75885;SDS011;64561;44.018;10.144;2023-09-19T01:54:45;15.82;;;5.15;;
75885;SDS011;64561;44.018;10.144;2023-09-19T01:57:32;12.70;;;4.70;;
75885;SDS011;64561;44.018;10.144;2023-09-19T02:00:06;14.18;;;4.65;;
75885;SDS011;64561;44.018;10.144;2023-09-19T02:02:42;18.38;;;5.90;;
75885;SDS011;64561;44.018;10.144;2023-09-19T02:05:13;17.35;;;4.82;;
75885;SDS011;64561;44.018;10.144;2023-09-19T02:07:48;12.02;;;4.80;;
75885;SDS011;64561;44.018;10.144;2023-09-19T02:10:16;11.07;;;3.88;;
75885;SDS011;64561;44.018;10.144;2023-09-19T02:12:45;12.82;;;4.97;;
75885;SDS011;64561;44.018;10.144;2023-09-19T02:15:13;18.33;;;4.82;;
75885;SDS011;64561;44.018;10.144;2023-09-19T02:17:43;17.00;;;4.45;;
75885;SDS011;64561;44.018;10.144;2023-09-19T02:20:11;16.80;;;5.75;;
75885;SDS011;64561;44.018;10.144;2023-09-19T02:22:41;14.10;;;4.30;;
75885;SDS011;64561;44.018;10.144;2023-09-19T02:25:28;17.00;;;4.82;;
75885;SDS011;64561;44.018;10.144;2023-09-19T02:27:57;9.18;;;4.10;;
75885;SDS011;64561;44.018;10.144;2023-09-19T02:30:29;13.27;;;4.55;;
75885;SDS011;64561;44.018;10.144;2023-09-19T02:32:57;9.63;;;3.83;;
75885;SDS011;64561;44.018;10.144;2023-09-19T02:35:24;15.20;;;4.05;;
75885;SDS011;64561;44.018;10.144;2023-09-19T02:37:52;15.38;;;3.95;;
75885;SDS011;64561;44.018;10.144;2023-09-19T02:40:19;14.18;;;4.05;;
75885;SDS011;64561;44.018;10.144;2023-09-19T02:42:47;14.55;;;4.07;;
75885;SDS011;64561;44.018;10.144;2023-09-19T02:45:17;11.98;;;3.45;;
75885;SDS011;64561;44.018;10.144;2023-09-19T02:47:45;11.70;;;4.18;;
75885;SDS011;64561;44.018;10.144;2023-09-19T02:50:14;11.48;;;4.40;;
75885;SDS011;64561;44.018;10.144;2023-09-19T02:52:44;17.70;;;4.70;;
75885;SDS011;64561;44.018;10.144;2023-09-19T02:55:16;12.07;;;4.47;;
75885;SDS011;64561;44.018;10.144;2023-09-19T02:57:46;12.18;;;4.13;;
75885;SDS011;64561;44.018;10.144;2023-09-19T03:00:14;12.52;;;4.13;;
75885;SDS011;64561;44.018;10.144;2023-09-19T03:02:42;14.02;;;4.15;;
75885;SDS011;64561;44.018;10.144;2023-09-19T03:05:09;10.30;;;3.90;;
75885;SDS011;64561;44.018;10.144;2023-09-19T03:07:38;18.30;;;4.78;;
75885;SDS011;64561;44.018;10.144;2023-09-19T03:10:06;11.35;;;4.13;;
75885;SDS011;64561;44.018;10.144;2023-09-19T03:12:34;8.57;;;3.70;;
75885;SDS011;64561;44.018;10.144;2023-09-19T03:15:02;8.20;;;3.33;;
75885;SDS011;64561;44.018;10.144;2023-09-19T03:17:31;12.50;;;4.60;;
75885;SDS011;64561;44.018;10.144;2023-09-19T03:20:00;10.75;;;4.15;;
75885;SDS011;64561;44.018;10.144;2023-09-19T03:22:29;9.07;;;3.65;;
75885;SDS011;64561;44.018;10.144;2023-09-19T03:24:56;12.73;;;4.93;;
75885;SDS011;64561;44.018;10.144;2023-09-19T03:27:23;15.07;;;6.63;;
75885;SDS011;64561;44.018;10.144;2023-09-19T03:29:51;18.15;;;8.00;;
75885;SDS011;64561;44.018;10.144;2023-09-19T03:32:18;11.27;;;5.05;;
75885;SDS011;64561;44.018;10.144;2023-09-19T03:34:46;14.98;;;4.40;;
75885;SDS011;64561;44.018;10.144;2023-09-19T03:37:16;12.48;;;5.47;;
75885;SDS011;64561;44.018;10.144;2023-09-19T03:39:44;14.77;;;5.30;;
75885;SDS011;64561;44.018;10.144;2023-09-19T03:42:11;12.35;;;4.55;;
75885;SDS011;64561;44.018;10.144;2023-09-19T03:44:38;12.15;;;4.78;;
75885;SDS011;64561;44.018;10.144;2023-09-19T03:47:06;13.05;;;4.20;;
75885;SDS011;64561;44.018;10.144;2023-09-19T03:49:34;8.00;;;3.85;;
75885;SDS011;64561;44.018;10.144;2023-09-19T03:52:01;12.23;;;5.25;;
75885;SDS011;64561;44.018;10.144;2023-09-19T03:54:28;11.88;;;4.95;;
75885;SDS011;64561;44.018;10.144;2023-09-19T03:56:55;14.15;;;5.03;;
75885;SDS011;64561;44.018;10.144;2023-09-19T03:59:23;15.70;;;5.28;;
75885;SDS011;64561;44.018;10.144;2023-09-19T04:01:50;9.32;;;4.47;;
75885;SDS011;64561;44.018;10.144;2023-09-19T04:04:22;13.57;;;4.18;;
75885;SDS011;64561;44.018;10.144;2023-09-19T04:06:51;12.63;;;4.45;;
75885;SDS011;64561;44.018;10.144;2023-09-19T04:09:18;18.45;;;5.85;;
75885;SDS011;64561;44.018;10.144;2023-09-19T04:11:45;15.75;;;4.72;;
75885;SDS011;64561;44.018;10.144;2023-09-19T04:14:12;14.93;;;5.07;;
75885;SDS011;64561;44.018;10.144;2023-09-19T04:16:39;12.32;;;4.18;;
75885;SDS011;64561;44.018;10.144;2023-09-19T04:19:07;12.60;;;5.18;;
75885;SDS011;64561;44.018;10.144;2023-09-19T04:21:34;13.35;;;4.60;;
75885;SDS011;64561;44.018;10.144;2023-09-19T04:24:01;9.48;;;4.38;;
75885;SDS011;64561;44.018;10.144;2023-09-19T04:26:29;11.80;;;4.70;;
75885;SDS011;64561;44.018;10.144;2023-09-19T04:28:56;12.98;;;4.22;;
75885;SDS011;64561;44.018;10.144;2023-09-19T04:31:23;14.95;;;5.00;;
75885;SDS011;64561;44.018;10.144;2023-09-19T04:33:50;9.50;;;4.22;;
75885;SDS011;64561;44.018;10.144;2023-09-19T04:36:18;17.83;;;4.80;;
75885;SDS011;64561;44.018;10.144;2023-09-19T04:41:34;10.93;;;3.92;;
75885;SDS011;64561;44.018;10.144;2023-09-19T04:44:01;10.27;;;4.25;;
75885;SDS011;64561;44.018;10.144;2023-09-19T04:46:28;11.98;;;4.00;;
75885;SDS011;64561;44.018;10.144;2023-09-19T04:48:55;8.38;;;3.67;;
75885;SDS011;64561;44.018;10.144;2023-09-19T04:51:23;14.00;;;4.53;;
75885;SDS011;64561;44.018;10.144;2023-09-19T04:53:50;11.23;;;4.40;;
75885;SDS011;64561;44.018;10.144;2023-09-19T04:56:17;11.48;;;4.25;;
75885;SDS011;64561;44.018;10.144;2023-09-19T04:58:44;13.77;;;5.40;;
75885;SDS011;64561;44.018;10.144;2023-09-19T05:01:12;13.52;;;4.32;;
75885;SDS011;64561;44.018;10.144;2023-09-19T05:03:41;14.32;;;3.88;;
75885;SDS011;64561;44.018;10.144;2023-09-19T05:06:09;10.32;;;4.65;;
75885;SDS011;64561;44.018;10.144;2023-09-19T05:08:36;11.25;;;3.88;;
75885;SDS011;64561;44.018;10.144;2023-09-19T05:11:03;9.73;;;4.10;;
75885;SDS011;64561;44.018;10.144;2023-09-19T05:13:30;9.27;;;3.58;;
75885;SDS011;64561;44.018;10.144;2023-09-19T05:15:59;10.38;;;4.10;;
75885;SDS011;64561;44.018;10.144;2023-09-19T05:18:29;16.08;;;4.18;;
75885;SDS011;64561;44.018;10.144;2023-09-19T05:20:56;9.65;;;4.45;;
75885;SDS011;64561;44.018;10.144;2023-09-19T05:23:23;11.50;;;3.92;;
75885;SDS011;64561;44.018;10.144;2023-09-19T05:25:50;12.35;;;4.07;;
75885;SDS011;64561;44.018;10.144;2023-09-19T05:28:18;10.45;;;3.80;;
75885;SDS011;64561;44.018;10.144;2023-09-19T05:30:45;13.65;;;4.65;;
75885;SDS011;64561;44.018;10.144;2023-09-19T05:33:15;10.90;;;3.92;;
75885;SDS011;64561;44.018;10.144;2023-09-19T05:35:42;8.77;;;4.20;;
75885;SDS011;64561;44.018;10.144;2023-09-19T05:38:10;10.43;;;4.45;;
75885;SDS011;64561;44.018;10.144;2023-09-19T05:40:40;12.13;;;4.30;;
75885;SDS011;64561;44.018;10.144;2023-09-19T05:43:12;11.10;;;3.97;;
75885;SDS011;64561;44.018;10.144;2023-09-19T05:45:41;13.18;;;4.47;;
75885;SDS011;64561;44.018;10.144;2023-09-19T05:48:09;9.18;;;3.42;;
75885;SDS011;64561;44.018;10.144;2023-09-19T05:50:36;7.82;;;3.50;;
75885;SDS011;64561;44.018;10.144;2023-09-19T05:53:03;11.60;;;3.78;;
75885;SDS011;64561;44.018;10.144;2023-09-19T05:55:33;10.88;;;4.00;;
75885;SDS011;64561;44.018;10.144;2023-09-19T05:58:00;8.82;;;4.53;;
75885;SDS011;64561;44.018;10.144;2023-09-19T06:00:33;14.05;;;4.57;;
75885;SDS011;64561;44.018;10.144;2023-09-19T06:03:02;9.32;;;3.92;;
75885;SDS011;64561;44.018;10.144;2023-09-19T06:05:30;14.55;;;4.18;;
75885;SDS011;64561;44.018;10.144;2023-09-19T06:07:59;12.55;;;4.00;;
75885;SDS011;64561;44.018;10.144;2023-09-19T06:10:27;11.30;;;4.10;;
75885;SDS011;64561;44.018;10.144;2023-09-19T06:12:56;14.45;;;4.65;;
75885;SDS011;64561;44.018;10.144;2023-09-19T06:15:25;14.82;;;4.72;;
75885;SDS011;64561;44.018;10.144;2023-09-19T06:17:54;12.23;;;4.18;;
75885;SDS011;64561;44.018;10.144;2023-09-19T06:20:23;11.30;;;4.50;;
75885;SDS011;64561;44.018;10.144;2023-09-19T06:22:53;15.50;;;4.40;;
75885;SDS011;64561;44.018;10.144;2023-09-19T06:25:21;13.85;;;3.78;;
75885;SDS011;64561;44.018;10.144;2023-09-19T06:27:50;11.43;;;4.30;;
75885;SDS011;64561;44.018;10.144;2023-09-19T06:30:24;9.20;;;4.55;;
75885;SDS011;64561;44.018;10.144;2023-09-19T06:32:59;11.95;;;4.28;;
75885;SDS011;64561;44.018;10.144;2023-09-19T06:35:31;9.35;;;4.63;;
75885;SDS011;64561;44.018;10.144;2023-09-19T06:38:03;12.77;;;4.30;;
75885;SDS011;64561;44.018;10.144;2023-09-19T06:40:31;13.82;;;5.47;;
75885;SDS011;64561;44.018;10.144;2023-09-19T06:43:00;9.98;;;5.00;;
75885;SDS011;64561;44.018;10.144;2023-09-19T06:47:58;11.80;;;4.05;;
75885;SDS011;64561;44.018;10.144;2023-09-19T06:50:27;10.00;;;4.03;;
75885;SDS011;64561;44.018;10.144;2023-09-19T06:52:54;11.88;;;5.55;;
75885;SDS011;64561;44.018;10.144;2023-09-19T06:55:25;11.45;;;4.18;;
75885;SDS011;64561;44.018;10.144;2023-09-19T06:57:59;9.38;;;3.45;;
75885;SDS011;64561;44.018;10.144;2023-09-19T07:00:26;7.47;;;3.17;;
75885;SDS011;64561;44.018;10.144;2023-09-19T07:02:58;14.38;;;3.97;;
75885;SDS011;64561;44.018;10.144;2023-09-19T07:05:35;11.20;;;4.88;;
75885;SDS011;64561;44.018;10.144;2023-09-19T07:08:07;9.45;;;3.67;;
75885;SDS011;64561;44.018;10.144;2023-09-19T07:10:36;13.07;;;3.72;;
75885;SDS011;64561;44.018;10.144;2023-09-19T07:13:04;10.95;;;3.88;;
75885;SDS011;64561;44.018;10.144;2023-09-19T07:15:38;9.45;;;4.10;;
75885;SDS011;64561;44.018;10.144;2023-09-19T07:18:08;14.45;;;3.95;;
75885;SDS011;64561;44.018;10.144;2023-09-19T07:20:38;7.60;;;3.50;;
75885;SDS011;64561;44.018;10.144;2023-09-19T07:23:05;12.35;;;4.10;;
75885;SDS011;64561;44.018;10.144;2023-09-19T07:25:33;8.10;;;3.33;;
75885;SDS011;64561;44.018;10.144;2023-09-19T07:28:02;10.73;;;3.95;;
75885;SDS011;64561;44.018;10.144;2023-09-19T07:30:30;8.20;;;3.47;;
75885;SDS011;64561;44.018;10.144;2023-09-19T07:32:57;15.18;;;4.43;;
75885;SDS011;64561;44.018;10.144;2023-09-19T07:35:24;10.60;;;4.03;;
75885;SDS011;64561;44.018;10.144;2023-09-19T07:37:52;6.88;;;3.10;;
75885;SDS011;64561;44.018;10.144;2023-09-19T07:40:20;10.57;;;3.63;;
75885;SDS011;64561;44.018;10.144;2023-09-19T07:42:48;10.50;;;3.70;;
75885;SDS011;64561;44.018;10.144;2023-09-19T07:45:16;13.00;;;4.88;;
75885;SDS011;64561;44.018;10.144;2023-09-19T07:47:45;12.70;;;3.50;;
75885;SDS011;64561;44.018;10.144;2023-09-19T07:50:14;13.80;;;4.57;;
75885;SDS011;64561;44.018;10.144;2023-09-19T07:52:46;8.63;;;3.65;;
75885;SDS011;64561;44.018;10.144;2023-09-19T07:55:14;11.80;;;4.40;;
75885;SDS011;64561;44.018;10.144;2023-09-19T07:57:46;10.07;;;3.75;;
75885;SDS011;64561;44.018;10.144;2023-09-19T08:00:14;9.50;;;3.97;;
75885;SDS011;64561;44.018;10.144;2023-09-19T08:02:42;12.75;;;3.70;;
75885;SDS011;64561;44.018;10.144;2023-09-19T08:05:10;9.10;;;3.47;;
75885;SDS011;64561;44.018;10.144;2023-09-19T08:07:39;10.07;;;3.80;;
75885;SDS011;64561;44.018;10.144;2023-09-19T08:12:43;15.13;;;3.78;;
75885;SDS011;64561;44.018;10.144;2023-09-19T08:17:42;11.05;;;4.53;;
75885;SDS011;64561;44.018;10.144;2023-09-19T08:20:10;12.10;;;4.18;;
75885;SDS011;64561;44.018;10.144;2023-09-19T08:22:52;13.80;;;4.40;;
75885;SDS011;64561;44.018;10.144;2023-09-19T08:25:23;11.25;;;4.07;;
75885;SDS011;64561;44.018;10.144;2023-09-19T08:27:53;9.02;;;3.92;;
75885;SDS011;64561;44.018;10.144;2023-09-19T08:30:24;13.55;;;4.40;;
75885;SDS011;64561;44.018;10.144;2023-09-19T08:32:57;10.40;;;4.22;;
75885;SDS011;64561;44.018;10.144;2023-09-19T08:35:31;11.23;;;3.67;;
75885;SDS011;64561;44.018;10.144;2023-09-19T08:37:58;15.57;;;3.97;;
75885;SDS011;64561;44.018;10.144;2023-09-19T08:40:32;11.73;;;4.13;;
75885;SDS011;64561;44.018;10.144;2023-09-19T08:43:00;10.85;;;3.88;;
75885;SDS011;64561;44.018;10.144;2023-09-19T08:45:27;11.98;;;4.25;;
75885;SDS011;64561;44.018;10.144;2023-09-19T08:51:00;10.18;;;3.97;;
75885;SDS011;64561;44.018;10.144;2023-09-19T08:56:30;13.63;;;3.47;;
75885;SDS011;64561;44.018;10.144;2023-09-19T08:59:00;9.43;;;3.35;;
75885;SDS011;64561;44.018;10.144;2023-09-19T09:01:31;11.27;;;3.83;;
75885;SDS011;64561;44.018;10.144;2023-09-19T09:04:00;8.25;;;3.85;;
75885;SDS011;64561;44.018;10.144;2023-09-19T09:06:29;12.55;;;3.92;;
75885;SDS011;64561;44.018;10.144;2023-09-19T09:08:56;11.95;;;3.65;;
75885;SDS011;64561;44.018;10.144;2023-09-19T09:11:24;14.13;;;4.28;;
75885;SDS011;64561;44.018;10.144;2023-09-19T09:13:55;8.18;;;3.58;;
75885;SDS011;64561;44.018;10.144;2023-09-19T09:16:22;14.13;;;3.90;;
75885;SDS011;64561;44.018;10.144;2023-09-19T09:18:53;10.88;;;4.13;;
75885;SDS011;64561;44.018;10.144;2023-09-19T09:21:22;13.95;;;3.97;;
75885;SDS011;64561;44.018;10.144;2023-09-19T09:23:52;14.93;;;3.97;;
75885;SDS011;64561;44.018;10.144;2023-09-19T09:26:40;12.20;;;4.93;;
75885;SDS011;64561;44.018;10.144;2023-09-19T09:29:09;10.00;;;3.10;;
75885;SDS011;64561;44.018;10.144;2023-09-19T09:31:37;11.48;;;4.30;;
75885;SDS011;64561;44.018;10.144;2023-09-19T09:34:05;12.07;;;4.32;;
75885;SDS011;64561;44.018;10.144;2023-09-19T09:36:39;8.43;;;3.38;;
75885;SDS011;64561;44.018;10.144;2023-09-19T09:39:08;10.02;;;4.03;;
75885;SDS011;64561;44.018;10.144;2023-09-19T09:41:46;14.65;;;4.15;;
75885;SDS011;64561;44.018;10.144;2023-09-19T09:44:16;10.30;;;4.07;;
75885;SDS011;64561;44.018;10.144;2023-09-19T09:46:46;10.05;;;3.65;;
75885;SDS011;64561;44.018;10.144;2023-09-19T09:49:36;11.73;;;4.30;;
75885;SDS011;64561;44.018;10.144;2023-09-19T09:52:06;11.95;;;3.58;;
75885;SDS011;64561;44.018;10.144;2023-09-19T09:54:39;8.70;;;3.50;;
75885;SDS011;64561;44.018;10.144;2023-09-19T09:57:28;9.70;;;3.92;;
75885;SDS011;64561;44.018;10.144;2023-09-19T09:59:57;11.90;;;3.75;;
75885;SDS011;64561;44.018;10.144;2023-09-19T10:02:40;9.98;;;3.80;;
75885;SDS011;64561;44.018;10.144;2023-09-19T10:07:54;10.32;;;3.58;;
75885;SDS011;64561;44.018;10.144;2023-09-19T10:10:35;14.18;;;3.70;;
75885;SDS011;64561;44.018;10.144;2023-09-19T10:13:10;11.00;;;3.65;;
75885;SDS011;64561;44.018;10.144;2023-09-19T10:15:47;10.48;;;4.15;;
75885;SDS011;64561;44.018;10.144;2023-09-19T10:18:19;9.40;;;3.28;;
75885;SDS011;64561;44.018;10.144;2023-09-19T10:20:48;12.77;;;3.03;;
75885;SDS011;64561;44.018;10.144;2023-09-19T10:23:17;12.55;;;4.13;;
75885;SDS011;64561;44.018;10.144;2023-09-19T10:25:53;9.10;;;3.38;;
75885;SDS011;64561;44.018;10.144;2023-09-19T10:28:21;10.57;;;3.08;;
75885;SDS011;64561;44.018;10.144;2023-09-19T10:30:50;11.23;;;3.00;;
75885;SDS011;64561;44.018;10.144;2023-09-19T10:33:20;9.13;;;3.10;;
75885;SDS011;64561;44.018;10.144;2023-09-19T10:35:49;7.90;;;3.28;;
75885;SDS011;64561;44.018;10.144;2023-09-19T10:38:18;8.55;;;3.38;;
75885;SDS011;64561;44.018;10.144;2023-09-19T10:40:51;12.82;;;4.30;;
75885;SDS011;64561;44.018;10.144;2023-09-19T10:43:20;10.73;;;3.25;;
75885;SDS011;64561;44.018;10.144;2023-09-19T10:45:52;8.90;;;3.67;;
75885;SDS011;64561;44.018;10.144;2023-09-19T10:48:23;9.60;;;3.45;;
75885;SDS011;64561;44.018;10.144;2023-09-19T10:53:43;13.10;;;3.72;;
75885;SDS011;64561;44.018;10.144;2023-09-19T10:56:26;11.05;;;3.42;;
75885;SDS011;64561;44.018;10.144;2023-09-19T10:59:08;8.15;;;3.50;;
75885;SDS011;64561;44.018;10.144;2023-09-19T11:04:21;11.13;;;3.33;;
75885;SDS011;64561;44.018;10.144;2023-09-19T11:18:51;10.93;;;3.55;;
75885;SDS011;64561;44.018;10.144;2023-09-19T11:26:49;13.40;;;3.65;;
75885;SDS011;64561;44.018;10.144;2023-09-19T11:31:58;10.98;;;3.15;;
75885;SDS011;64561;44.018;10.144;2023-09-19T11:34:41;12.80;;;3.97;;
75885;SDS011;64561;44.018;10.144;2023-09-19T11:42:45;10.05;;;3.67;;
75885;SDS011;64561;44.018;10.144;2023-09-19T11:48:18;13.30;;;3.60;;
75885;SDS011;64561;44.018;10.144;2023-09-19T11:50:45;11.77;;;4.10;;
75885;SDS011;64561;44.018;10.144;2023-09-19T11:53:14;12.15;;;3.40;;
75885;SDS011;64561;44.018;10.144;2023-09-19T11:55:43;15.40;;;4.38;;
75885;SDS011;64561;44.018;10.144;2023-09-19T11:58:12;12.20;;;4.47;;
75885;SDS011;64561;44.018;10.144;2023-09-19T12:00:43;11.43;;;4.20;;
75885;SDS011;64561;44.018;10.144;2023-09-19T12:03:12;13.02;;;3.92;;
75885;SDS011;64561;44.018;10.144;2023-09-19T12:05:45;12.32;;;4.07;;
75885;SDS011;64561;44.018;10.144;2023-09-19T12:08:14;13.15;;;3.83;;
75885;SDS011;64561;44.018;10.144;2023-09-19T12:10:46;16.60;;;3.85;;
75885;SDS011;64561;44.018;10.144;2023-09-19T12:13:16;10.93;;;3.55;;
75885;SDS011;64561;44.018;10.144;2023-09-19T12:15:47;12.68;;;4.20;;
75885;SDS011;64561;44.018;10.144;2023-09-19T12:21:02;14.23;;;3.80;;
75885;SDS011;64561;44.018;10.144;2023-09-19T12:23:34;8.68;;;3.20;;
75885;SDS011;64561;44.018;10.144;2023-09-19T12:26:04;8.93;;;3.38;;
75885;SDS011;64561;44.018;10.144;2023-09-19T12:28:41;10.30;;;4.05;;
75885;SDS011;64561;44.018;10.144;2023-09-19T12:31:09;10.23;;;3.78;;
75885;SDS011;64561;44.018;10.144;2023-09-19T12:33:36;10.43;;;3.50;;
75885;SDS011;64561;44.018;10.144;2023-09-19T12:36:19;10.70;;;3.67;;
75885;SDS011;64561;44.018;10.144;2023-09-19T12:38:56;9.18;;;4.20;;
75885;SDS011;64561;44.018;10.144;2023-09-19T12:43:53;12.63;;;3.60;;
75885;SDS011;64561;44.018;10.144;2023-09-19T12:46:21;8.18;;;3.22;;
75885;SDS011;64561;44.018;10.144;2023-09-19T12:51:46;9.15;;;3.20;;
75885;SDS011;64561;44.018;10.144;2023-09-19T12:54:14;8.18;;;2.95;;
75885;SDS011;64561;44.018;10.144;2023-09-19T12:56:43;8.93;;;3.50;;
75885;SDS011;64561;44.018;10.144;2023-09-19T12:59:12;11.05;;;3.35;;
75885;SDS011;64561;44.018;10.144;2023-09-19T13:01:41;8.13;;;2.90;;
75885;SDS011;64561;44.018;10.144;2023-09-19T13:04:21;8.82;;;3.20;;
75885;SDS011;64561;44.018;10.144;2023-09-19T13:06:57;9.63;;;2.63;;
75885;SDS011;64561;44.018;10.144;2023-09-19T13:09:28;10.55;;;3.28;;
75885;SDS011;64561;44.018;10.144;2023-09-19T13:12:02;8.38;;;2.85;;
75885;SDS011;64561;44.018;10.144;2023-09-19T13:14:29;10.07;;;3.42;;
75885;SDS011;64561;44.018;10.144;2023-09-19T13:17:05;11.38;;;3.33;;
75885;SDS011;64561;44.018;10.144;2023-09-19T13:19:54;7.47;;;3.05;;
75885;SDS011;64561;44.018;10.144;2023-09-19T13:29:10;10.90;;;3.40;;
75885;SDS011;64561;44.018;10.144;2023-09-19T13:31:37;9.57;;;2.80;;
75885;SDS011;64561;44.018;10.144;2023-09-19T13:34:08;9.55;;;3.38;;
75885;SDS011;64561;44.018;10.144;2023-09-19T13:36:35;9.52;;;3.63;;
75885;SDS011;64561;44.018;10.144;2023-09-19T13:39:04;9.52;;;3.10;;
75885;SDS011;64561;44.018;10.144;2023-09-19T13:41:32;10.27;;;3.20;;
75885;SDS011;64561;44.018;10.144;2023-09-19T13:43:59;8.00;;;3.03;;
75885;SDS011;64561;44.018;10.144;2023-09-19T13:46:27;7.90;;;2.70;;
75885;SDS011;64561;44.018;10.144;2023-09-19T13:48:56;10.23;;;2.75;;
75885;SDS011;64561;44.018;10.144;2023-09-19T13:51:26;6.60;;;2.63;;
75885;SDS011;64561;44.018;10.144;2023-09-19T13:53:53;7.32;;;2.70;;
75885;SDS011;64561;44.018;10.144;2023-09-19T13:56:20;5.20;;;2.80;;
75885;SDS011;64561;44.018;10.144;2023-09-19T13:58:48;7.53;;;2.50;;
75885;SDS011;64561;44.018;10.144;2023-09-19T14:01:15;4.90;;;2.58;;
75885;SDS011;64561;44.018;10.144;2023-09-19T14:03:42;9.30;;;2.40;;
75885;SDS011;64561;44.018;10.144;2023-09-19T14:06:13;6.20;;;2.45;;
75885;SDS011;64561;44.018;10.144;2023-09-19T14:08:40;7.03;;;2.45;;
75885;SDS011;64561;44.018;10.144;2023-09-19T14:11:08;8.05;;;2.45;;
75885;SDS011;64561;44.018;10.144;2023-09-19T14:13:36;4.80;;;1.83;;
75885;SDS011;64561;44.018;10.144;2023-09-19T14:16:03;4.80;;;1.67;;
75885;SDS011;64561;44.018;10.144;2023-09-19T14:18:32;5.82;;;2.20;;
75885;SDS011;64561;44.018;10.144;2023-09-19T14:21:05;4.88;;;1.60;;
75885;SDS011;64561;44.018;10.144;2023-09-19T14:23:36;5.47;;;2.05;;
75885;SDS011;64561;44.018;10.144;2023-09-19T14:26:04;6.68;;;2.03;;
75885;SDS011;64561;44.018;10.144;2023-09-19T14:28:32;6.97;;;2.33;;
75885;SDS011;64561;44.018;10.144;2023-09-19T14:31:06;5.22;;;2.35;;
75885;SDS011;64561;44.018;10.144;2023-09-19T14:33:35;3.40;;;2.25;;
75885;SDS011;64561;44.018;10.144;2023-09-19T14:36:06;6.55;;;2.10;;
75885;SDS011;64561;44.018;10.144;2023-09-19T14:38:37;4.20;;;1.80;;
75885;SDS011;64561;44.018;10.144;2023-09-19T14:41:06;5.47;;;2.30;;
75885;SDS011;64561;44.018;10.144;2023-09-19T14:43:33;5.43;;;1.92;;
75885;SDS011;64561;44.018;10.144;2023-09-19T14:46:04;9.50;;;2.15;;
75885;SDS011;64561;44.018;10.144;2023-09-19T14:48:37;6.13;;;2.17;;
75885;SDS011;64561;44.018;10.144;2023-09-19T14:51:06;5.65;;;2.20;;
75885;SDS011;64561;44.018;10.144;2023-09-19T14:53:38;4.97;;;1.83;;
75885;SDS011;64561;44.018;10.144;2023-09-19T14:56:07;6.80;;;2.38;;
75885;SDS011;64561;44.018;10.144;2023-09-19T14:58:35;7.28;;;2.60;;
75885;SDS011;64561;44.018;10.144;2023-09-19T15:01:06;7.10;;;2.05;;
75885;SDS011;64561;44.018;10.144;2023-09-19T15:03:37;6.07;;;2.22;;
75885;SDS011;64561;44.018;10.144;2023-09-19T15:06:10;5.00;;;2.38;;
75885;SDS011;64561;44.018;10.144;2023-09-19T15:08:41;7.70;;;2.80;;
75885;SDS011;64561;44.018;10.144;2023-09-19T15:11:15;7.45;;;2.45;;
75885;SDS011;64561;44.018;10.144;2023-09-19T15:13:46;7.30;;;2.33;;
75885;SDS011;64561;44.018;10.144;2023-09-19T15:16:14;6.47;;;2.13;;
75885;SDS011;64561;44.018;10.144;2023-09-19T15:18:42;5.80;;;2.78;;
75885;SDS011;64561;44.018;10.144;2023-09-19T15:21:14;6.78;;;2.15;;
75885;SDS011;64561;44.018;10.144;2023-09-19T15:23:41;7.50;;;2.70;;
75885;SDS011;64561;44.018;10.144;2023-09-19T15:26:12;5.30;;;2.55;;
75885;SDS011;64561;44.018;10.144;2023-09-19T15:28:44;7.00;;;2.70;;
75885;SDS011;64561;44.018;10.144;2023-09-19T15:31:11;6.35;;;2.35;;
75885;SDS011;64561;44.018;10.144;2023-09-19T15:33:40;8.35;;;2.40;;
75885;SDS011;64561;44.018;10.144;2023-09-19T15:36:08;5.90;;;3.03;;
75885;SDS011;64561;44.018;10.144;2023-09-19T15:41:25;7.55;;;2.80;;
75885;SDS011;64561;44.018;10.144;2023-09-19T15:44:00;7.20;;;3.58;;
75885;SDS011;64561;44.018;10.144;2023-09-19T15:49:03;4.60;;;2.45;;
75885;SDS011;64561;44.018;10.144;2023-09-19T15:51:30;8.68;;;3.53;;
75885;SDS011;64561;44.018;10.144;2023-09-19T15:53:58;5.18;;;2.47;;
75885;SDS011;64561;44.018;10.144;2023-09-19T15:56:27;10.20;;;2.90;;
75885;SDS011;64561;44.018;10.144;2023-09-19T15:58:54;7.88;;;2.80;;
75885;SDS011;64561;44.018;10.144;2023-09-19T16:01:22;8.88;;;3.00;;
75885;SDS011;64561;44.018;10.144;2023-09-19T16:03:50;8.20;;;3.13;;
75885;SDS011;64561;44.018;10.144;2023-09-19T16:06:27;9.15;;;3.15;;
75885;SDS011;64561;44.018;10.144;2023-09-19T16:08:55;9.73;;;3.17;;
75885;SDS011;64561;44.018;10.144;2023-09-19T16:11:25;6.65;;;3.15;;
75885;SDS011;64561;44.018;10.144;2023-09-19T16:13:54;4.93;;;2.90;;